Airfield :
LOGIN :

Register | Disclaimer

   EN    FR    IT 

 










Legend :    VFR   Marginal VFR   IFR   Intensive IFR   Very Intensive IFR
Visi :
Ceiling :
>= 8 km
>= 3000ft
5 to 8 km
1000 to 3000 ft
1500m to 5 km
500 to 1000 ft
800 to 1500m
200 to 500 ft
< 800m
< 200 ft
Symbols :   Thunderstorms  Fog  Heavy snow  Heavy precipitations  Wind > 20 kt
SIGMETs :     Misc.  Thunderstorms  Icing  Turbulence  Mountain Waves  Volcanic Ashes







- Airport Elevation : 353 ft
- IATA code : ZAG


LDZA - Zagreb Pleso

CURRENT METAR :
  • 172030Z 04006KT 010V070 CAVOK 03/M03 Q1029 NOSIG

EXPIRED METARs :
  • 172000Z 04005KT 010V070 CAVOK 04/M03 Q1029 NOSIG
  • 171930Z 06004KT 350V110 CAVOK 04/M03 Q1029 NOSIG
  • 171900Z 03011KT CAVOK 04/M03 Q1029 NOSIG
  • 171830Z 02009KT 350V050 CAVOK 04/M03 Q1029 NOSIG
  • 171800Z 03007KT 9999 FEW045 03/M03 Q1029 NOSIG

TAF TAF LDZA
Valid from the 17 at 18:00 until the 18 at 18:00 UTC


171725Z 1718/1818 05008KT 9999 BKN030 TX05/1813Z TN01/1806Z
ATIS : +385 1 6-259-214
No reported NOTAMs for that airfield.
2 SIGMETs reported for the Zagreb FIR (LDZO) :
 
Severe turbulence
LDZO SIGMET 5 VALID 172100/180100 LDZA
LDZO ZAGREB FIR SEV TURB FCST WI N4408 E01556 - N4407 E01504 - N4517 E01301 - N4532 E01324 - N4536 E01433 - N4408 E01556 SFC/6000FT STNR NC=
Severe turbulence
LDZO SIGMET 4 VALID 171707/172100 LDZA
LDZO ZAGREB FIR SEV TURB FCST WI N4539 E01434 - N4407 E01619 - N4336 E01528 - N4517 E01302 - N4532 E01321 - N4539 E01434 SFC/6000FT STNR NC=



MET'MAP, your aeronautical weather chart ! - Copyright ORBIFLY December 2007 - Disclaimer

ORBIFLY MET'MAP TEAM :

Programming & Development : Alexandra Zaïnal
Concept & Development : Baudouin d'Aumeries
Co-Development & Prog : Marc-Olivier Méhu
Technical & hardware support : Manuel Goepfert

Contact : metmap@orbifly.com




SOURCES & CREDITS :

   NOAA